createdAt,value
2022-08-24T00:01:04.258Z,97900.69
2022-08-24T00:03:57.253Z,97904.91
2022-08-24T00:06:46.616Z,97908.69
2022-08-24T00:09:35.713Z,97929.63
2022-08-24T00:12:24.756Z,97929.34
2022-08-24T00:15:08.034Z,97933.75
2022-08-24T00:17:56.746Z,97944.13
2022-08-24T00:20:45.707Z,97938.44
2022-08-24T00:23:27.980Z,97948.06
2022-08-24T00:26:28.500Z,97959.13
2022-08-24T00:29:11.322Z,97962.09
2022-08-24T00:32:01.805Z,97957.56
2022-08-24T00:34:58.627Z,97959.78
2022-08-24T00:37:49.716Z,97962.38
2022-08-24T00:40:36.744Z,97966.88
2022-08-24T00:43:26.661Z,97977.34
2022-08-24T00:46:24.732Z,97983.66
2022-08-24T00:49:27.206Z,97993.66
2022-08-24T00:52:35.626Z,98005.63
2022-08-24T00:55:36.738Z,98018.31
2022-08-24T00:58:44.618Z,98020.59
2022-08-24T01:01:33.716Z,98026.28
2022-08-24T01:04:21.480Z,98042.06
2022-08-24T01:07:11.761Z,98043.06
2022-08-24T01:09:57.417Z,98045.66
2022-08-24T01:12:59.991Z,98049.50
2022-08-24T01:15:49.006Z,98046.63
2022-08-24T01:18:59.619Z,98047.88
2022-08-24T01:22:00.077Z,98049.97
2022-08-24T01:24:44.637Z,98051.91
2022-08-24T01:27:37.056Z,98054.06
2022-08-24T01:30:21.717Z,98055.28
2022-08-24T01:33:29.773Z,98061.63
2022-08-24T01:36:33.035Z,98064.16
2022-08-24T01:39:55.038Z,98068.16
2022-08-24T01:42:37.989Z,98068.72
2022-08-24T01:45:27.645Z,98076.44
2022-08-24T01:48:13.039Z,98089.13
2022-08-24T01:51:01.705Z,98086.88
2022-08-24T01:53:51.632Z,98083.84
2022-08-24T01:56:42.709Z,98083.19
2022-08-24T01:59:24.967Z,98083.16
2022-08-24T02:02:27.738Z,98098.16
2022-08-24T02:05:10.788Z,98097.31
2022-08-24T02:08:01.802Z,98092.66
2022-08-24T02:10:45.924Z,98091.03
2022-08-24T02:13:56.726Z,98103.38
2022-08-24T02:16:46.626Z,98092.66
2022-08-24T02:19:41.734Z,98098.63
2022-08-24T02:22:30.119Z,98095.31
2022-08-24T02:25:14.125Z,98093.19
2022-08-24T02:28:03.085Z,98087.84
2022-08-24T02:30:44.721Z,98094.03
2022-08-24T02:33:33.646Z,98094.16
2022-08-24T02:36:26.706Z,98097.19
2022-08-24T02:39:17.009Z,98098.91
2022-08-24T02:41:59.700Z,98106.53
2022-08-24T02:44:47.894Z,98111.91
2022-08-24T02:47:37.981Z,98125.66
2022-08-24T02:50:27.627Z,98127.75
2022-08-24T02:53:16.749Z,98124.38
2022-08-24T02:56:05.641Z,98125.53
2022-08-24T02:58:54.820Z,98120.97
2022-08-24T03:01:43.210Z,98118.44
2022-08-24T03:04:26.768Z,98133.31
2022-08-24T03:07:09.802Z,98140.06
2022-08-24T03:09:58.726Z,98131.84
2022-08-24T03:12:55.726Z,98140.81
2022-08-24T03:15:47.685Z,98142.03
2022-08-24T03:18:31.593Z,98145.78
2022-08-24T03:21:22.615Z,98155.63
2022-08-24T03:24:14.632Z,98159.50
2022-08-24T03:27:05.337Z,98162.09
2022-08-24T03:29:48.784Z,98168.75
2022-08-24T03:32:39.183Z,98161.91
2022-08-24T03:35:22.711Z,98171.16
2022-08-24T03:38:11.690Z,98173.22
2022-08-24T03:41:00.686Z,98166.31
2022-08-24T03:43:56.645Z,98180.88
2022-08-24T03:46:50.745Z,98179.03
2022-08-24T03:49:42.626Z,98185.31
2022-08-24T03:52:34.035Z,98193.38
2022-08-24T03:55:23.617Z,98199.50
2022-08-24T03:58:12.711Z,98190.66
2022-08-24T04:01:02.716Z,98196.03
2022-08-24T04:03:51.161Z,98199.38
2022-08-24T04:06:46.767Z,98199.00
2022-08-24T04:09:30.061Z,98205.75
2022-08-24T04:12:18.704Z,98205.69
2022-08-24T04:15:18.681Z,98209.69
2022-08-24T04:18:13.712Z,98214.41
2022-08-24T04:21:02.741Z,98216.56
2022-08-24T04:23:47.603Z,98207.78
2022-08-24T04:26:45.696Z,98217.31
2022-08-24T04:29:35.611Z,98210.66
2022-08-24T04:32:18.074Z,98221.53
2022-08-24T04:35:09.597Z,98215.53
2022-08-24T04:37:51.671Z,98211.91
2022-08-24T04:40:40.625Z,98213.22
2022-08-24T04:43:24.684Z,98213.66
2022-08-24T04:46:18.634Z,98210.16
2022-08-24T04:49:01.957Z,98207.47
2022-08-24T04:51:51.612Z,98212.84
2022-08-24T04:54:41.727Z,98210.53
2022-08-24T04:57:30.007Z,98213.31
2022-08-24T05:00:19.685Z,98211.75
2022-08-24T05:03:02.064Z,98205.00
2022-08-24T05:05:54.641Z,98214.28
2022-08-24T05:08:36.911Z,98210.91
2022-08-24T05:11:27.707Z,98208.25
2022-08-24T05:14:11.223Z,98220.03
2022-08-24T05:17:06.775Z,98209.72
2022-08-24T05:19:59.520Z,98202.69
2022-08-24T05:22:43.765Z,98206.59
2022-08-24T05:25:47.573Z,98210.84
2022-08-24T05:28:36.747Z,98207.16
2022-08-24T05:31:25.958Z,98201.47
2022-08-24T05:34:20.627Z,98203.16
2022-08-24T05:37:12.627Z,98190.00
2022-08-24T05:40:23.714Z,98189.41
2022-08-24T05:43:06.995Z,98190.06
2022-08-24T05:46:01.602Z,98181.19
2022-08-24T05:48:53.038Z,98175.59
2022-08-24T05:51:40.631Z,98178.53
2022-08-24T05:54:29.999Z,98178.66
2022-08-24T05:57:13.726Z,98168.25
2022-08-24T06:00:20.636Z,98165.44
2022-08-24T06:03:11.969Z,98175.63
2022-08-24T06:06:06.604Z,98168.16
2022-08-24T06:08:51.909Z,98163.13
2022-08-24T06:11:44.673Z,98167.78
2022-08-24T06:14:27.221Z,98163.03
2022-08-24T06:17:16.853Z,98155.44
2022-08-24T06:20:12.583Z,98149.47
2022-08-24T06:23:02.842Z,98146.66
2022-08-24T06:26:10.058Z,98150.06
2022-08-24T06:29:02.713Z,98152.56
2022-08-24T06:31:54.615Z,98147.44
2022-08-24T06:34:46.618Z,98148.63
2022-08-24T06:37:36.690Z,98144.25
2022-08-24T06:40:29.694Z,98144.63
2022-08-24T06:43:18.704Z,98138.44
2022-08-24T06:46:02.164Z,98145.88
2022-08-24T06:48:55.612Z,98142.47
2022-08-24T06:51:48.667Z,98130.28
2022-08-24T06:54:32.700Z,98129.47
2022-08-24T06:57:22.727Z,98130.28
2022-08-24T07:00:06.026Z,98127.50
2022-08-24T07:02:54.650Z,98130.16
2022-08-24T07:05:44.632Z,98129.00
2022-08-24T07:08:47.549Z,98122.25
2022-08-24T07:11:36.647Z,98116.72
2022-08-24T07:14:27.062Z,98120.19
2022-08-24T07:17:10.771Z,98111.94
2022-08-24T07:20:05.540Z,98114.31
2022-08-24T07:23:42.020Z,98110.78
2022-08-24T07:26:33.724Z,98106.34
2022-08-24T07:32:30.929Z,98101.53
2022-08-24T07:35:20.769Z,98106.25
2022-08-24T07:38:11.015Z,98102.28
2022-08-24T07:41:20.309Z,98093.13
2022-08-24T07:43:57.835Z,98101.47
2022-08-24T07:46:46.804Z,98091.91
2022-08-24T07:49:36.817Z,98088.41
2022-08-24T07:52:26.621Z,98092.75
2022-08-24T07:55:17.097Z,98081.19
2022-08-24T07:57:59.615Z,98088.78
2022-08-24T08:00:47.982Z,98082.53
2022-08-24T08:03:31.592Z,98079.56
2022-08-24T08:06:21.015Z,98079.63
2022-08-24T08:09:08.608Z,98070.41
2022-08-24T08:11:58.728Z,98054.47
2022-08-24T08:14:42.166Z,98066.41
2022-08-24T08:17:31.740Z,98060.69
2022-08-24T08:20:23.706Z,98063.38
2022-08-24T08:23:46.602Z,98046.78
2022-08-24T08:27:00.706Z,98032.91
2022-08-24T08:29:53.665Z,98029.63
2022-08-24T08:32:42.621Z,98027.72
2022-08-24T08:35:31.985Z,98024.56
2022-08-24T08:38:16.631Z,98024.16
2022-08-24T08:41:45.995Z,98026.09
2022-08-24T08:44:51.631Z,98029.00
2022-08-24T08:48:11.768Z,98020.75
2022-08-24T08:51:22.023Z,98014.06
2022-08-24T08:54:25.722Z,98012.91
2022-08-24T08:57:17.313Z,98000.25
2022-08-24T09:00:16.090Z,97988.28
2022-08-24T09:03:25.715Z,98004.91
2022-08-24T09:06:49.691Z,97994.97
2022-08-24T09:09:56.284Z,97989.47
2022-08-24T09:13:27.727Z,97988.28
2022-08-24T09:16:52.677Z,97980.31
2022-08-24T09:19:44.739Z,97984.63
2022-08-24T09:22:33.642Z,97975.91
2022-08-24T09:25:36.617Z,97977.38
2022-08-24T09:28:41.447Z,97972.75
2022-08-24T09:31:40.693Z,97961.19
2022-08-24T09:34:57.701Z,97959.56
2022-08-24T09:38:01.865Z,97951.22
2022-08-24T09:41:02.719Z,97953.97
2022-08-24T09:43:45.007Z,97946.41
2022-08-24T09:46:57.739Z,97932.41
2022-08-24T09:49:58.013Z,97943.19
2022-08-24T09:53:23.721Z,97936.44
2022-08-24T09:56:36.650Z,97930.47
2022-08-24T09:59:47.631Z,97924.44
2022-08-24T10:02:33.126Z,97915.31
2022-08-24T10:05:48.833Z,97904.97
2022-08-24T10:09:13.636Z,97895.44
2022-08-24T10:12:38.640Z,97885.44
2022-08-24T10:15:36.020Z,97882.22
2022-08-24T10:18:58.591Z,97882.63
2022-08-24T10:22:03.020Z,97872.28
2022-08-24T10:25:10.608Z,97884.25
2022-08-24T10:28:02.027Z,97881.84
2022-08-24T10:31:02.614Z,97872.25
2022-08-24T10:34:10.710Z,97868.28
2022-08-24T10:37:10.807Z,97858.72
2022-08-24T10:40:26.687Z,97873.47
2022-08-24T10:43:39.039Z,97874.31
2022-08-24T10:46:23.716Z,97873.84
2022-08-24T10:49:30.373Z,97867.91
2022-08-24T10:52:44.670Z,97865.47
2022-08-24T10:55:37.625Z,97858.34
2022-08-24T10:59:11.678Z,97860.69
2022-08-24T11:02:15.929Z,97855.94
2022-08-24T11:05:08.608Z,97855.97
2022-08-24T11:12:04.154Z,97847.59
2022-08-24T11:15:00.234Z,97845.50
2022-08-24T11:18:13.925Z,97844.00
2022-08-24T11:21:13.644Z,97839.97
2022-08-24T11:24:02.490Z,97839.56
2022-08-24T11:27:13.770Z,97834.81
2022-08-24T11:29:58.732Z,97839.94
2022-08-24T11:33:00.749Z,97842.78
2022-08-24T11:35:42.869Z,97838.81
2022-08-24T11:38:39.679Z,97833.63
2022-08-24T11:41:34.602Z,97835.25
2022-08-24T11:44:57.612Z,97836.03
2022-08-24T11:48:01.841Z,97832.47
2022-08-24T11:51:05.502Z,97838.41
2022-08-24T11:54:12.622Z,97838.41
2022-08-24T11:57:11.882Z,97838.41
2022-08-24T12:00:13.662Z,97841.22
2022-08-24T12:03:12.041Z,97830.47
2022-08-24T12:06:16.684Z,97835.19
2022-08-24T12:09:30.716Z,97831.91
2022-08-24T12:12:30.865Z,97837.91
2022-08-24T12:16:06.778Z,97835.19
2022-08-24T12:19:19.571Z,97835.19
2022-08-24T12:22:12.629Z,97828.44
2022-08-24T12:25:32.585Z,97824.41
2022-08-24T12:28:31.613Z,97828.78
2022-08-24T12:31:54.095Z,97832.72
2022-08-24T12:35:08.679Z,97832.34
2022-08-24T12:38:09.209Z,97839.59
2022-08-24T12:41:12.137Z,97843.88
2022-08-24T12:44:10.950Z,97842.28
2022-08-24T12:47:07.682Z,97850.28
2022-08-24T12:50:05.707Z,97862.94
2022-08-24T12:53:13.462Z,97868.06
2022-08-24T12:56:33.585Z,97869.03
2022-08-24T12:59:33.044Z,97869.66
2022-08-24T13:02:27.673Z,97876.28
2022-08-24T13:05:29.971Z,97879.69
2022-08-24T13:08:51.636Z,97872.38
2022-08-24T13:11:47.619Z,97866.59
2022-08-24T13:14:38.006Z,97873.97
2022-08-24T13:17:20.816Z,97869.38
2022-08-24T13:20:32.719Z,97871.00
2022-08-24T13:23:24.993Z,97879.28
2022-08-24T13:26:41.613Z,97878.13
2022-08-24T13:29:44.670Z,97891.50
2022-08-24T13:33:01.802Z,97887.78
2022-08-24T13:35:43.776Z,97900.44
2022-08-24T13:38:52.350Z,97894.13
2022-08-24T13:41:55.636Z,97906.69
2022-08-24T13:45:00.896Z,97910.47
2022-08-24T13:48:10.706Z,97918.56
2022-08-24T13:51:01.883Z,97939.97
2022-08-24T13:54:04.588Z,97947.19
2022-08-24T13:56:54.999Z,97960.91
2022-08-24T14:00:09.621Z,97960.28
2022-08-24T14:03:27.767Z,97965.72
2022-08-24T14:06:35.817Z,97957.84
2022-08-24T14:09:29.040Z,97971.34
2022-08-24T14:12:40.636Z,97975.81
2022-08-24T14:15:35.072Z,97975.28
2022-08-24T14:18:23.649Z,97977.16
2022-08-24T14:21:48.754Z,97970.94
2022-08-24T14:24:46.118Z,97974.41
2022-08-24T14:28:02.833Z,97961.13
2022-08-24T14:30:59.628Z,97960.88
2022-08-24T14:34:22.737Z,97959.13
2022-08-24T14:37:29.616Z,97958.81
2022-08-24T14:40:54.630Z,97956.63
2022-08-24T14:43:54.973Z,97964.69
2022-08-24T14:46:52.748Z,97978.63
2022-08-24T14:50:11.983Z,97981.13
2022-08-24T14:53:04.689Z,97986.56
2022-08-24T14:55:46.936Z,97983.03
2022-08-24T14:59:08.691Z,97979.84
2022-08-24T15:01:54.021Z,97992.03
2022-08-24T15:04:53.700Z,97980.72
2022-08-24T15:07:44.421Z,97992.41
2022-08-24T15:10:41.585Z,97994.91
2022-08-24T15:13:56.796Z,97998.38
2022-08-24T15:17:00.844Z,97995.97
2022-08-24T15:19:52.564Z,97998.72
2022-08-24T15:22:47.843Z,98002.41
2022-08-24T15:25:50.595Z,98005.34
2022-08-24T15:28:35.953Z,98010.41
2022-08-24T15:31:36.611Z,98018.53
2022-08-24T15:34:19.437Z,98023.88
2022-08-24T15:37:14.674Z,98010.31
2022-08-24T15:40:14.491Z,98015.75
2022-08-24T15:43:11.679Z,98022.00
2022-08-24T15:45:59.092Z,98019.88
2022-08-24T15:48:49.908Z,98019.59
2022-08-24T15:51:49.797Z,98022.91
2022-08-24T15:54:48.580Z,98026.03
2022-08-24T15:57:34.122Z,98026.84
2022-08-24T16:00:49.734Z,98029.50
2022-08-24T16:03:56.582Z,98025.41
2022-08-24T16:06:48.734Z,98037.31
2022-08-24T16:09:30.867Z,98040.75
2022-08-24T16:12:45.695Z,98043.00
2022-08-24T16:15:28.974Z,98042.53
2022-08-24T16:18:17.565Z,98047.72
2022-08-24T16:21:00.097Z,98046.28
2022-08-24T16:23:51.586Z,98042.88
2022-08-24T16:26:57.998Z,98051.03
2022-08-24T16:29:46.598Z,98055.72
2022-08-24T16:32:50.226Z,98060.31
2022-08-24T16:35:42.885Z,98061.66
2022-08-24T16:38:32.700Z,98054.88
2022-08-24T16:41:24.687Z,98064.97
2022-08-24T16:44:15.032Z,98060.38
2022-08-24T16:46:56.642Z,98060.97
2022-08-24T16:49:47.672Z,98064.97
2022-08-24T16:52:37.701Z,98057.25
2022-08-24T16:55:20.063Z,98065.72
2022-08-24T16:58:09.643Z,98065.25
2022-08-24T17:00:58.707Z,98069.66
2022-08-24T17:03:41.079Z,98072.31
2022-08-24T17:06:30.691Z,98070.38
2022-08-24T17:09:19.895Z,98066.84
2022-08-24T17:12:10.192Z,98067.44
2022-08-24T17:14:53.731Z,98066.19
2022-08-24T17:17:47.892Z,98061.38
2022-08-24T17:20:30.583Z,98062.88
2022-08-24T17:23:26.668Z,98061.72
2022-08-24T17:26:21.822Z,98069.13
2022-08-24T17:29:11.659Z,98064.91
2022-08-24T17:32:03.727Z,98061.09
2022-08-24T17:34:52.705Z,98066.38
2022-08-24T17:37:41.024Z,98057.44
2022-08-24T17:40:32.789Z,98059.31
2022-08-24T17:43:15.718Z,98056.81
2022-08-24T17:46:05.738Z,98069.56
2022-08-24T17:48:49.131Z,98062.28
2022-08-24T17:51:37.764Z,98065.56
2022-08-24T17:54:22.933Z,98056.88
2022-08-24T17:57:11.593Z,98060.47
2022-08-24T17:59:54.078Z,98058.78
2022-08-24T18:02:42.733Z,98058.84
2022-08-24T18:05:24.957Z,98067.88
2022-08-24T18:08:14.677Z,98064.84
2022-08-24T18:10:57.054Z,98074.03
2022-08-24T18:13:45.671Z,98066.38
2022-08-24T18:16:31.227Z,98065.56
2022-08-24T18:19:22.958Z,98060.13
2022-08-24T18:22:06.972Z,98072.50
2022-08-24T18:24:55.761Z,98060.38
2022-08-24T18:27:40.955Z,98054.31
2022-08-24T18:30:34.716Z,98056.56
2022-08-24T18:33:17.172Z,98058.09
2022-08-24T18:36:05.976Z,98054.13
2022-08-24T18:39:02.746Z,98062.50
2022-08-24T18:42:03.676Z,98063.91
2022-08-24T18:44:47.181Z,98059.81
2022-08-24T18:47:35.669Z,98065.09
2022-08-24T18:50:18.556Z,98063.38
2022-08-24T18:53:07.684Z,98062.59
2022-08-24T18:55:56.701Z,98061.09
2022-08-24T18:58:45.767Z,98053.53
2022-08-24T19:01:29.769Z,98055.06
2022-08-24T19:04:19.671Z,98054.09
2022-08-24T19:07:10.828Z,98055.31
2022-08-24T19:09:52.666Z,98055.97
2022-08-24T19:12:46.789Z,98053.09
2022-08-24T19:15:39.780Z,98048.44
2022-08-24T19:18:24.663Z,98043.34
2022-08-24T19:21:07.680Z,98037.50
2022-08-24T19:23:51.053Z,98033.56
2022-08-24T19:26:39.648Z,98034.00
2022-08-24T19:29:54.102Z,98022.88
2022-08-24T19:32:39.681Z,98026.13
2022-08-24T19:35:24.012Z,98024.16
2022-08-24T19:38:12.672Z,98028.69
2022-08-24T19:41:12.558Z,98024.59
2022-08-24T19:44:27.212Z,98015.22
2022-08-24T19:47:09.981Z,98026.13
2022-08-24T19:49:58.669Z,98021.91
2022-08-24T19:52:43.390Z,98018.13
2022-08-24T19:55:32.667Z,98025.16
2022-08-24T19:58:51.643Z,98022.81
2022-08-24T20:01:43.709Z,98018.28
2022-08-24T20:04:25.990Z,98013.44
2022-08-24T20:07:16.694Z,98016.34
2022-08-24T20:09:58.972Z,98006.72
2022-08-24T20:12:47.655Z,98008.47
2022-08-24T20:15:36.681Z,98003.19
2022-08-24T20:18:18.865Z,97993.91
2022-08-24T20:21:07.685Z,97983.50
2022-08-24T20:23:49.951Z,97989.59
2022-08-24T20:26:39.673Z,97988.88
2022-08-24T20:29:28.659Z,97986.59
2022-08-24T20:32:10.963Z,97988.53
2022-08-24T20:35:01.680Z,97987.38
2022-08-24T20:37:44.062Z,97978.50
2022-08-24T20:40:40.663Z,97969.38
2022-08-24T20:43:28.936Z,97979.88
2022-08-24T20:46:11.755Z,97974.78
2022-08-24T20:48:55.847Z,97976.91
2022-08-24T20:51:44.652Z,97972.59
2022-08-24T20:54:36.612Z,97971.44
2022-08-24T20:57:26.252Z,97957.53
2022-08-24T21:00:17.680Z,97958.53
2022-08-24T21:02:59.847Z,97958.47
2022-08-24T21:05:48.676Z,97955.47
2022-08-24T21:08:37.652Z,97954.44
2022-08-24T21:11:26.687Z,97938.63
2022-08-24T21:14:16.659Z,97948.09
2022-08-24T21:17:06.665Z,97940.75
2022-08-24T21:19:55.650Z,97934.47
2022-08-24T21:22:44.660Z,97946.38
2022-08-24T21:25:26.913Z,97935.16
2022-08-24T21:28:15.666Z,97930.63
2022-08-24T21:30:58.998Z,97937.81
2022-08-24T21:34:07.674Z,97930.59
2022-08-24T21:36:49.923Z,97928.88
2022-08-24T21:39:41.657Z,97926.91
2022-08-24T21:42:30.646Z,97922.25
2022-08-24T21:45:20.669Z,97925.59
2022-08-24T21:48:02.970Z,97927.69
2022-08-24T21:50:51.679Z,97925.44
2022-08-24T21:53:33.963Z,97924.66
2022-08-24T21:56:32.643Z,97915.25
2022-08-24T21:59:16.000Z,97915.38
2022-08-24T22:02:05.005Z,97913.41
2022-08-24T22:04:46.833Z,97907.88
2022-08-24T22:07:43.642Z,97908.22
2022-08-24T22:10:27.103Z,97897.72
2022-08-24T22:13:15.664Z,97909.56
2022-08-24T22:15:57.950Z,97907.22
2022-08-24T22:18:47.659Z,97903.59
2022-08-24T22:21:36.270Z,97904.75
2022-08-24T22:24:25.669Z,97908.38
2022-08-24T22:27:07.912Z,97908.69
2022-08-24T22:29:56.635Z,97902.16
2022-08-24T22:32:38.967Z,97902.06
2022-08-24T22:35:27.632Z,97902.66
2022-08-24T22:38:10.970Z,97898.69
2022-08-24T22:41:03.647Z,97903.09
2022-08-24T22:44:04.290Z,97902.53
2022-08-24T22:46:58.654Z,97897.75
2022-08-24T22:49:45.885Z,97900.38
2022-08-24T22:52:34.648Z,97898.63
2022-08-24T22:55:17.843Z,97900.38
2022-08-24T22:58:07.642Z,97909.28
2022-08-24T23:00:49.930Z,97908.09
2022-08-24T23:03:38.726Z,97908.81
2022-08-24T23:06:20.841Z,97896.13
2022-08-24T23:09:09.683Z,97908.03
2022-08-24T23:11:55.756Z,97905.78
2022-08-24T23:14:45.648Z,97892.59
2022-08-24T23:17:28.873Z,97900.81
2022-08-24T23:20:18.641Z,97898.44
2022-08-24T23:23:00.950Z,97899.34
2022-08-24T23:25:49.642Z,97901.56
2022-08-24T23:28:32.517Z,97899.88
2022-08-24T23:31:21.741Z,97898.91
2022-08-24T23:34:04.999Z,97899.41
2022-08-24T23:36:53.653Z,97912.47
2022-08-24T23:39:35.954Z,97904.88
2022-08-24T23:42:30.776Z,97903.94
2022-08-24T23:45:13.091Z,97922.22
2022-08-24T23:48:02.750Z,97915.06
2022-08-24T23:50:51.686Z,97909.53
2022-08-24T23:53:43.118Z,97917.56
2022-08-24T23:56:33.943Z,97934.41
2022-08-24T23:59:26.634Z,97927.47
